Time;durP1;ratioP1;P1;durP2;ratioP2;P2;SDS_P1;SDS_P2;PMS_P1;PMS_P2;Temp;Humidity;BMP_temperature;BMP_pressure;BME280_temperature;BME280_humidity;BME280_pressure;Samples;Min_cycle;Max_cycle;Signal;HPM_P1;HPM_P2
2023/04/09 00:00:48;;;;;;;27.00;11.50;;;;;;;;;;5017891;28;20218;-71
2023/04/09 00:03:17;;;;;;;25.65;11.30;;;;;;;;;;5019124;28;20049;-71
2023/04/09 00:05:45;;;;;;;26.90;12.13;;;;;;;;;;5041765;28;20052;-72
2023/04/09 00:08:12;;;;;;;25.98;11.65;;;;;;;;;;5026235;28;20044;-70
2023/04/09 00:10:39;;;;;;;24.60;11.73;;;;;;;;;;5030569;28;20140;-71
2023/04/09 00:13:06;;;;;;;25.13;11.43;;;;;;;;;;5027932;28;20052;-70
2023/04/09 00:15:32;;;;;;;28.17;11.85;;;;;;;;;;5008983;28;20067;-70
2023/04/09 00:17:59;;;;;;;21.95;10.57;;;;;;;;;;5019698;28;20068;-69
2023/04/09 00:20:27;;;;;;;26.85;11.43;;;;;;;;;;5015767;28;20057;-69
2023/04/09 00:22:55;;;;;;;26.88;11.68;;;;;;;;;;5023995;28;20056;-69
2023/04/09 00:25:24;;;;;;;26.17;11.20;;;;;;;;;;5030007;28;20088;-69
2023/04/09 00:27:51;;;;;;;24.13;11.43;;;;;;;;;;5005565;28;20063;-72
2023/04/09 00:30:18;;;;;;;22.52;10.40;;;;;;;;;;5011484;28;20057;-70
2023/04/09 00:32:44;;;;;;;27.50;11.95;;;;;;;;;;5016811;28;20057;-71
2023/04/09 00:35:11;;;;;;;25.90;11.67;;;;;;;;;;5023487;28;20060;-70
2023/04/09 00:37:40;;;;;;;25.38;11.10;;;;;;;;;;5012597;28;20052;-71
2023/04/09 00:40:07;;;;;;;24.70;11.45;;;;;;;;;;5029174;28;20065;-69
2023/04/09 00:42:33;;;;;;;25.30;11.80;;;;;;;;;;5023406;28;20064;-71
2023/04/09 00:45:00;;;;;;;21.85;11.00;;;;;;;;;;5016013;28;20059;-71
2023/04/09 00:47:29;;;;;;;24.73;11.25;;;;;;;;;;5036734;28;20059;-71
2023/04/09 00:49:56;;;;;;;25.45;11.68;;;;;;;;;;5032614;28;20063;-71
2023/04/09 00:52:23;;;;;;;22.13;10.50;;;;;;;;;;5014345;28;20083;-69
2023/04/09 00:54:52;;;;;;;24.38;11.18;;;;;;;;;;5039787;28;20114;-69
2023/04/09 00:57:18;;;;;;;;;;;;;;;;;;5040065;28;20147;-71
2023/04/09 00:59:46;;;;;;;23.13;9.75;;;;;;;;;;5050400;28;19966;-69
2023/04/09 01:02:12;;;;;;;24.85;10.45;;;;;;;;;;5040333;28;20120;-70
2023/04/09 01:04:41;;;;;;;27.75;11.27;;;;;;;;;;5036550;28;20056;-70
2023/04/09 01:07:11;;;;;;;31.00;11.30;;;;;;;;;;5033887;28;20056;-70
2023/04/09 01:09:41;;;;;;;24.58;10.95;;;;;;;;;;5064329;28;20055;-70
2023/04/09 01:12:13;;;;;;;21.05;10.48;;;;;;;;;;5048353;28;20056;-70
2023/04/09 01:14:45;;;;;;;25.85;11.43;;;;;;;;;;5055339;28;20072;-71
2023/04/09 01:17:13;;;;;;;24.17;10.55;;;;;;;;;;5048098;28;20056;-70
2023/04/09 01:19:44;;;;;;;27.17;11.55;;;;;;;;;;5064775;28;20226;-72
2023/04/09 01:22:23;;;;;;;23.23;11.05;;;;;;;;;;5043913;28;20246;-72
2023/04/09 01:24:56;;;;;;;23.48;10.63;;;;;;;;;;5047452;28;20060;-70
2023/04/09 01:27:28;;;;;;;23.58;11.00;;;;;;;;;;5051590;28;20076;-72
2023/04/09 01:29:57;;;;;;;24.45;9.95;;;;;;;;;;5067710;28;20189;-72
2023/04/09 01:32:25;;;;;;;22.13;10.25;;;;;;;;;;5065319;28;20060;-70
2023/04/09 01:34:52;;;;;;;22.73;10.38;;;;;;;;;;5053347;28;20122;-69
2023/04/09 01:37:19;;;;;;;24.13;10.45;;;;;;;;;;5043562;28;20099;-71
2023/04/09 01:39:46;;;;;;;21.05;10.07;;;;;;;;;;5054262;28;20048;-69
2023/04/09 01:42:13;;;;;;;26.52;10.93;;;;;;;;;;5051075;28;20262;-70
2023/04/09 01:44:40;;;;;;;27.50;11.32;;;;;;;;;;5055396;28;20064;-69
2023/04/09 01:47:08;;;;;;;23.33;10.15;;;;;;;;;;5069733;28;20065;-69
2023/04/09 01:49:35;;;;;;;;;;;;;;;;;;5059602;28;20088;-69
2023/04/09 01:52:02;;;;;;;21.83;10.52;;;;;;;;;;5052066;28;19925;-69
2023/04/09 01:54:29;;;;;;;22.48;10.45;;;;;;;;;;5067047;28;20088;-70
2023/04/09 01:56:57;;;;;;;25.33;11.07;;;;;;;;;;5051908;28;20056;-72
2023/04/09 01:59:24;;;;;;;24.52;10.98;;;;;;;;;;5071417;28;20065;-70
2023/04/09 02:01:53;;;;;;;23.08;10.75;;;;;;;;;;5048894;28;20141;-69
2023/04/09 02:04:24;;;;;;;23.70;10.85;;;;;;;;;;5043889;28;20059;-70
2023/04/09 02:06:54;;;;;;;23.15;10.30;;;;;;;;;;5052650;28;20048;-70
2023/04/09 02:09:21;;;;;;;23.10;10.55;;;;;;;;;;5050463;28;20131;-70
2023/04/09 02:11:48;;;;;;;24.67;10.88;;;;;;;;;;5053767;28;20057;-71
2023/04/09 02:14:18;;;;;;;23.23;10.35;;;;;;;;;;5046884;28;20065;-70
2023/04/09 02:16:48;;;;;;;24.33;10.15;;;;;;;;;;5065105;28;20056;-71
2023/04/09 02:19:15;;;;;;;22.20;10.13;;;;;;;;;;5050832;28;20127;-69
2023/04/09 02:21:44;;;;;;;28.42;10.73;;;;;;;;;;5073558;28;20167;-69
2023/04/09 02:24:10;;;;;;;24.20;9.82;;;;;;;;;;5053376;28;20316;-69
2023/04/09 02:26:37;;;;;;;25.95;10.32;;;;;;;;;;5061676;28;20048;-69
2023/04/09 02:29:03;;;;;;;22.02;10.45;;;;;;;;;;5062762;28;20056;-70
2023/04/09 02:39:26;;;;;;;27.25;11.05;;;;;;;;;;5040734;27;20448;-80
2023/04/09 02:41:52;;;;;;;25.75;11.65;;;;;;;;;;5041317;28;20061;-78
2023/04/09 02:44:19;;;;;;;22.05;10.45;;;;;;;;;;4984709;28;20059;-70
2023/04/09 02:46:46;;;;;;;23.77;10.80;;;;;;;;;;4998256;28;21609;-79
2023/04/09 02:49:13;;;;;;;27.15;11.50;;;;;;;;;;4991843;28;20132;-73
2023/04/09 02:51:39;;;;;;;24.45;10.85;;;;;;;;;;5003967;28;20065;-70
2023/04/09 02:54:07;;;;;;;24.02;10.52;;;;;;;;;;4992325;28;20136;-85
2023/04/09 02:56:34;;;;;;;23.20;11.00;;;;;;;;;;5023157;28;20060;-85
2023/04/09 02:59:01;;;;;;;26.27;11.43;;;;;;;;;;5021321;28;20055;-73
2023/04/09 03:01:27;;;;;;;23.38;11.35;;;;;;;;;;5009569;28;20081;-80
2023/04/09 03:03:54;;;;;;;21.45;10.43;;;;;;;;;;5012010;28;20100;-75
2023/04/09 03:06:27;;;;;;;22.95;10.52;;;;;;;;;;4979134;28;20057;-72
2023/04/09 03:08:53;;;;;;;23.10;10.45;;;;;;;;;;5005771;28;20122;-70
2023/04/09 03:11:20;;;;;;;25.30;10.65;;;;;;;;;;5010496;28;20053;-76
2023/04/09 03:13:48;;;;;;;25.30;11.68;;;;;;;;;;5010555;28;20061;-74
2023/04/09 03:16:15;;;;;;;23.42;10.85;;;;;;;;;;4974932;28;20065;-82
2023/04/09 03:18:41;;;;;;;26.88;10.73;;;;;;;;;;5003459;28;20214;-79
2023/04/09 03:21:08;;;;;;;24.65;11.13;;;;;;;;;;5015583;28;20084;-77
2023/04/09 03:23:35;;;;;;;26.48;11.27;;;;;;;;;;5030346;28;20061;-76
2023/04/09 03:26:02;;;;;;;23.10;10.82;;;;;;;;;;4944107;28;20056;-70
2023/04/09 03:28:29;;;;;;;27.42;11.27;;;;;;;;;;5035573;28;20080;-70
2023/04/09 03:30:57;;;;;;;21.85;10.60;;;;;;;;;;5025753;28;20065;-80
2023/04/09 03:33:24;;;;;;;25.48;10.95;;;;;;;;;;5021783;28;20087;-81
2023/04/09 03:35:50;;;;;;;26.60;11.50;;;;;;;;;;5026659;28;20052;-73
2023/04/09 03:38:18;;;;;;;24.25;10.93;;;;;;;;;;5014553;28;20653;-72
2023/04/09 03:40:44;;;;;;;23.30;10.85;;;;;;;;;;5025629;28;20061;-76
2023/04/09 03:43:11;;;;;;;27.23;11.98;;;;;;;;;;5011703;28;20056;-78
2023/04/09 03:45:38;;;;;;;27.90;12.57;;;;;;;;;;4994502;28;20116;-71
2023/04/09 03:48:06;;;;;;;27.52;12.13;;;;;;;;;;5025794;28;20060;-78
2023/04/09 03:50:37;;;;;;;25.73;11.88;;;;;;;;;;5008696;28;20140;-82
2023/04/09 03:53:04;;;;;;;25.75;11.95;;;;;;;;;;5000846;28;20145;-70
2023/04/09 03:55:30;;;;;;;26.60;11.52;;;;;;;;;;4953196;28;20068;-76
2023/04/09 03:57:57;;;;;;;25.08;11.27;;;;;;;;;;5009568;28;20142;-78
2023/04/09 04:00:26;;;;;;;25.58;11.98;;;;;;;;;;5007893;28;20061;-73
2023/04/09 04:02:52;;;;;;;26.08;12.45;;;;;;;;;;5002534;28;20187;-69
2023/04/09 04:05:22;;;;;;;25.77;11.82;;;;;;;;;;4996005;28;20059;-76
2023/04/09 04:07:49;;;;;;;25.55;11.45;;;;;;;;;;5026030;28;20041;-70
2023/04/09 04:10:15;;;;;;;25.30;10.98;;;;;;;;;;5012471;28;20144;-81
2023/04/09 04:12:42;;;;;;;27.08;11.80;;;;;;;;;;5002073;28;20140;-74
2023/04/09 04:15:09;;;;;;;29.27;12.13;;;;;;;;;;5007562;28;20060;-76
2023/04/09 04:17:35;;;;;;;28.33;12.85;;;;;;;;;;5015509;28;20053;-73
2023/04/09 04:20:01;;;;;;;27.38;12.15;;;;;;;;;;5008657;28;20080;-73
2023/04/09 04:22:29;;;;;;;27.13;12.60;;;;;;;;;;5006908;28;20058;-69
2023/04/09 04:24:56;;;;;;;25.90;12.03;;;;;;;;;;4966170;28;20137;-71
2023/04/09 04:27:22;;;;;;;30.17;13.00;;;;;;;;;;5014220;28;20081;-76
2023/04/09 04:29:49;;;;;;;28.77;12.90;;;;;;;;;;5009896;28;20080;-78
2023/04/09 04:32:15;;;;;;;28.63;12.23;;;;;;;;;;5015584;28;20060;-70
2023/04/09 04:34:42;;;;;;;28.00;11.95;;;;;;;;;;4977028;28;20052;-72
2023/04/09 04:37:08;;;;;;;31.60;13.27;;;;;;;;;;5015117;28;20053;-72
2023/04/09 04:39:36;;;;;;;31.67;13.40;;;;;;;;;;5009511;28;20140;-72
2023/04/09 04:42:03;;;;;;;28.70;12.23;;;;;;;;;;5008753;28;20060;-76
2023/04/09 04:44:30;;;;;;;26.40;12.63;;;;;;;;;;4977546;28;20058;-73
2023/04/09 04:46:56;;;;;;;31.98;12.32;;;;;;;;;;4948684;28;20061;-72
2023/04/09 04:49:23;;;;;;;31.33;13.45;;;;;;;;;;5021896;28;20099;-77
2023/04/09 04:51:50;;;;;;;33.72;13.75;;;;;;;;;;5006140;28;20106;-78
2023/04/09 04:54:16;;;;;;;31.52;13.43;;;;;;;;;;5015669;28;20077;-69
2023/04/09 04:56:44;;;;;;;29.70;13.13;;;;;;;;;;5003625;28;20057;-68
2023/04/09 04:59:10;;;;;;;30.58;13.18;;;;;;;;;;5019974;28;20053;-73
2023/04/09 05:01:37;;;;;;;31.45;14.13;;;;;;;;;;5023227;28;20088;-70
2023/04/09 05:04:04;;;;;;;33.38;13.93;;;;;;;;;;5003186;28;20064;-75
2023/04/09 05:06:31;;;;;;;29.30;13.25;;;;;;;;;;5000638;28;20061;-73
2023/04/09 05:08:57;;;;;;;29.20;13.45;;;;;;;;;;5011594;28;20139;-71
2023/04/09 05:11:24;;;;;;;26.23;12.45;;;;;;;;;;5015583;28;20139;-69
2023/04/09 05:13:52;;;;;;;30.17;12.88;;;;;;;;;;5013801;28;20059;-72
2023/04/09 05:16:22;;;;;;;30.90;13.07;;;;;;;;;;5019769;28;20053;-74
2023/04/09 05:18:49;;;;;;;29.90;13.30;;;;;;;;;;5002687;28;20045;-70
2023/04/09 05:21:17;;;;;;;29.17;12.77;;;;;;;;;;5011783;28;20057;-73
2023/04/09 05:23:44;;;;;;;29.05;12.95;;;;;;;;;;5002292;28;20089;-73
2023/04/09 05:26:10;;;;;;;33.35;12.68;;;;;;;;;;5005451;28;20061;-77
2023/04/09 05:28:37;;;;;;;29.45;12.60;;;;;;;;;;5001334;28;20114;-71
2023/04/09 05:31:09;;;;;;;24.90;11.93;;;;;;;;;;4987380;28;20081;-74
2023/04/09 05:33:37;;;;;;;30.05;12.25;;;;;;;;;;5005064;28;20147;-72
2023/04/09 05:36:03;;;;;;;27.67;11.77;;;;;;;;;;4930887;28;20054;-73
2023/04/09 05:38:31;;;;;;;29.88;12.15;;;;;;;;;;4956227;28;20054;-76
2023/04/09 05:41:03;;;;;;;27.50;12.23;;;;;;;;;;4905083;28;20060;-73
2023/04/09 05:43:32;;;;;;;31.90;12.98;;;;;;;;;;4946006;28;20058;-69
2023/04/09 05:46:04;;;;;;;27.98;12.55;;;;;;;;;;4930882;28;20055;-76
2023/04/09 05:56:13;;;;;;;28.27;12.55;;;;;;;;;;5018769;27;20503;-70
2023/04/09 05:58:48;;;;;;;27.65;11.45;;;;;;;;;;5010645;28;20080;-72
2023/04/09 06:01:20;;;;;;;25.95;11.88;;;;;;;;;;5040332;28;20107;-68
2023/04/09 06:03:47;;;;;;;26.83;12.10;;;;;;;;;;5022739;28;20056;-69
2023/04/09 06:06:13;;;;;;;29.75;11.55;;;;;;;;;;5030236;28;20099;-75
2023/04/09 06:08:43;;;;;;;24.85;11.68;;;;;;;;;;5018982;28;20064;-72
2023/04/09 06:11:12;;;;;;;26.88;11.70;;;;;;;;;;5020732;28;20073;-71
2023/04/09 06:13:39;;;;;;;24.85;10.55;;;;;;;;;;5016633;28;20115;-75
2023/04/09 06:16:07;;;;;;;23.85;11.00;;;;;;;;;;4943155;28;20053;-67
2023/04/09 06:21:02;;;;;;;24.67;10.77;;;;;;;;;;4958401;28;20062;-68
2023/04/09 06:23:32;;;;;;;27.85;10.85;;;;;;;;;;4957673;28;20124;-73
2023/04/09 06:25:59;;;;;;;27.92;11.30;;;;;;;;;;4960991;28;20262;-73
2023/04/09 06:28:35;;;;;;;25.25;10.95;;;;;;;;;;4991043;28;20061;-71
2023/04/09 06:38:46;;;;;;;23.90;10.90;;;;;;;;;;5038209;27;20463;-73
2023/04/09 06:41:13;;;;;;;26.88;11.30;;;;;;;;;;5026797;28;20060;-70
2023/04/09 06:43:40;;;;;;;25.58;10.73;;;;;;;;;;5052671;28;20086;-72
2023/04/09 06:46:07;;;;;;;24.80;11.13;;;;;;;;;;5047106;28;20155;-72
2023/04/09 06:48:41;;;;;;;26.00;10.68;;;;;;;;;;5037838;28;20072;-71
2023/04/09 06:51:08;;;;;;;28.35;11.38;;;;;;;;;;5034119;28;20057;-70
2023/04/09 06:53:36;;;;;;;23.73;10.30;;;;;;;;;;5044619;28;20075;-71
2023/04/09 06:56:03;;;;;;;;;;;;;;;;;;4999428;28;20131;-71
2023/04/09 06:58:32;;;;;;;;;;;;;;;;;;5026966;28;20005;-72
2023/04/09 07:01:01;;;;;;;20.42;8.82;;;;;;;;;;5045596;28;19956;-72
2023/04/09 07:03:28;;;;;;;28.80;11.60;;;;;;;;;;5038812;28;20052;-72
2023/04/09 07:05:56;;;;;;;25.88;11.38;;;;;;;;;;5030492;28;20048;-70
2023/04/09 07:08:27;;;;;;;25.30;10.77;;;;;;;;;;5034630;28;20056;-70
2023/04/09 07:10:54;;;;;;;24.95;10.93;;;;;;;;;;5033342;28;20084;-72
2023/04/09 07:13:21;;;;;;;28.52;12.07;;;;;;;;;;5029468;28;20081;-72
2023/04/09 07:15:53;;;;;;;28.15;11.55;;;;;;;;;;5025594;28;20123;-72
2023/04/09 07:18:25;;;;;;;27.55;11.55;;;;;;;;;;5025784;28;20085;-72
2023/04/09 07:20:54;;;;;;;26.35;11.15;;;;;;;;;;5019013;28;20135;-70
2023/04/09 07:23:21;;;;;;;26.02;11.18;;;;;;;;;;5029025;28;20069;-72
2023/04/09 07:25:50;;;;;;;26.85;11.68;;;;;;;;;;5019991;28;20142;-71
2023/04/09 07:28:17;;;;;;;25.33;11.48;;;;;;;;;;5033952;28;20339;-70
2023/04/09 07:30:47;;;;;;;25.85;11.30;;;;;;;;;;5028598;28;20075;-72
2023/04/09 07:33:13;;;;;;;27.48;10.98;;;;;;;;;;5030698;28;20061;-70
2023/04/09 07:35:41;;;;;;;28.92;11.38;;;;;;;;;;5024953;28;20057;-72
2023/04/09 07:38:08;;;;;;;25.90;10.80;;;;;;;;;;5006241;28;20172;-72
2023/04/09 07:40:37;;;;;;;25.98;10.05;;;;;;;;;;5008488;28;20049;-71
2023/04/09 07:43:04;;;;;;;26.90;12.07;;;;;;;;;;5034604;28;20057;-72
2023/04/09 07:45:30;;;;;;;31.67;12.45;;;;;;;;;;5027717;28;20160;-70
2023/04/09 07:47:57;;;;;;;25.33;11.48;;;;;;;;;;5028601;28;20049;-70
2023/04/09 07:50:32;;;;;;;27.63;11.75;;;;;;;;;;5011094;28;20045;-71
2023/04/09 07:53:03;;;;;;;28.27;11.18;;;;;;;;;;5029885;28;20077;-72
2023/04/09 07:55:30;;;;;;;32.30;13.18;;;;;;;;;;5008472;28;20075;-72
2023/04/09 07:57:59;;;;;;;30.98;12.95;;;;;;;;;;5009060;28;20053;-70
2023/04/09 08:00:28;;;;;;;23.33;11.45;;;;;;;;;;5006365;28;20104;-72
2023/04/09 08:02:58;;;;;;;26.20;11.10;;;;;;;;;;5019427;28;20049;-72
2023/04/09 08:05:24;;;;;;;31.05;12.27;;;;;;;;;;4995672;28;20080;-73
2023/04/09 08:07:52;;;;;;;27.08;12.07;;;;;;;;;;5004245;28;20088;-70
2023/04/09 08:10:23;;;;;;;26.38;12.00;;;;;;;;;;5011781;28;20148;-72
2023/04/09 08:12:50;;;;;;;26.85;11.98;;;;;;;;;;5011667;28;20056;-71
2023/04/09 08:15:16;;;;;;;25.75;12.35;;;;;;;;;;4968194;28;20120;-71
2023/04/09 08:17:43;;;;;;;28.27;12.13;;;;;;;;;;5024364;28;20053;-71
2023/04/09 08:20:11;;;;;;;26.17;11.07;;;;;;;;;;5016456;28;20048;-71
2023/04/09 08:22:41;;;;;;;29.63;11.77;;;;;;;;;;5009021;28;20058;-72
2023/04/09 08:25:11;;;;;;;26.30;11.60;;;;;;;;;;5013806;28;20383;-70
2023/04/09 08:27:39;;;;;;;28.38;12.20;;;;;;;;;;5011670;28;20136;-71
2023/04/09 08:30:09;;;;;;;27.38;11.88;;;;;;;;;;5012037;28;20057;-72
2023/04/09 08:32:39;;;;;;;33.15;12.55;;;;;;;;;;5011872;28;20061;-72
2023/04/09 08:35:09;;;;;;;27.52;11.95;;;;;;;;;;5004210;28;20072;-71
2023/04/09 08:37:35;;;;;;;25.63;11.77;;;;;;;;;;5024037;28;20045;-73
2023/04/09 08:40:14;;;;;;;28.60;12.43;;;;;;;;;;5035587;28;20060;-71
2023/04/09 08:42:44;;;;;;;32.40;12.63;;;;;;;;;;5030740;28;20080;-71
2023/04/09 08:45:11;;;;;;;30.60;12.25;;;;;;;;;;5055100;28;20049;-73
2023/04/09 08:47:39;;;;;;;26.83;11.88;;;;;;;;;;5030875;28;20152;-71
2023/04/09 08:50:09;;;;;;;28.50;11.77;;;;;;;;;;5034501;28;20053;-70
2023/04/09 08:52:38;;;;;;;28.70;12.48;;;;;;;;;;5010494;28;20064;-72
2023/04/09 08:55:04;;;;;;;;;;;;;;;;;;5026743;28;20059;-71
2023/04/09 08:57:36;;;;;;;27.33;11.50;;;;;;;;;;5034360;28;19968;-73
2023/04/09 09:00:08;;;;;;;26.15;11.52;;;;;;;;;;5034553;28;20052;-70
2023/04/09 09:02:35;;;;;;;26.83;12.10;;;;;;;;;;5023805;28;20144;-70
2023/04/09 09:05:02;;;;;;;26.23;12.40;;;;;;;;;;5027674;28;20045;-72
2023/04/09 09:07:29;;;;;;;27.52;12.98;;;;;;;;;;5027363;28;20063;-72
2023/04/09 09:09:57;;;;;;;28.58;12.38;;;;;;;;;;5028162;28;20060;-71
2023/04/09 09:12:35;;;;;;;26.77;11.57;;;;;;;;;;5010051;28;20053;-72
2023/04/09 09:15:04;;;;;;;27.02;12.27;;;;;;;;;;5033430;28;20057;-70
2023/04/09 09:17:53;;;;;;;27.88;11.98;;;;;;;;;;5018951;28;20147;-70
2023/04/09 09:20:23;;;;;;;27.05;11.68;;;;;;;;;;5034596;28;20061;-71
2023/04/09 09:22:55;;;;;;;24.33;11.50;;;;;;;;;;5017493;28;20199;-69
2023/04/09 09:25:23;;;;;;;26.70;12.32;;;;;;;;;;5021185;28;20059;-72
2023/04/09 09:27:53;;;;;;;24.05;10.85;;;;;;;;;;5030666;28;20049;-71
2023/04/09 09:30:23;;;;;;;28.90;11.98;;;;;;;;;;5033092;28;20076;-71
2023/04/09 09:32:53;;;;;;;24.42;10.93;;;;;;;;;;5029687;28;20053;-72
2023/04/09 09:35:22;;;;;;;26.45;11.90;;;;;;;;;;5024647;28;20053;-71
2023/04/09 09:38:00;;;;;;;24.60;10.98;;;;;;;;;;5003800;28;20059;-69
2023/04/09 09:40:30;;;;;;;27.05;11.05;;;;;;;;;;5031025;28;20091;-72
2023/04/09 09:42:57;;;;;;;25.95;11.50;;;;;;;;;;5033716;28;20057;-72
2023/04/09 09:45:24;;;;;;;25.33;10.98;;;;;;;;;;5027838;28;20150;-71
2023/04/09 09:47:53;;;;;;;27.30;11.77;;;;;;;;;;5038811;28;20052;-72
2023/04/09 09:50:24;;;;;;;26.50;11.32;;;;;;;;;;5037992;28;20053;-72
2023/04/09 09:52:50;;;;;;;23.27;11.45;;;;;;;;;;5003177;28;20052;-70
2023/04/09 09:55:18;;;;;;;24.52;11.18;;;;;;;;;;5021747;28;20045;-72
2023/04/09 09:57:47;;;;;;;22.63;10.65;;;;;;;;;;5031473;28;20049;-72
2023/04/09 10:00:16;;;;;;;25.58;11.63;;;;;;;;;;5025049;28;20053;-70
2023/04/09 10:02:48;;;;;;;27.52;11.55;;;;;;;;;;5030151;28;20148;-72
2023/04/09 10:05:16;;;;;;;22.48;9.98;;;;;;;;;;5028624;28;20098;-70
2023/04/09 10:07:43;;;;;;;22.92;11.05;;;;;;;;;;5020860;28;20074;-70
2023/04/09 10:10:12;;;;;;;26.33;10.98;;;;;;;;;;5030261;28;20048;-70
2023/04/09 10:12:44;;;;;;;26.00;10.13;;;;;;;;;;5021016;28;20135;-72
2023/04/09 10:15:10;;;;;;;21.70;10.60;;;;;;;;;;5038011;28;20064;-71
2023/04/09 10:17:40;;;;;;;23.50;11.45;;;;;;;;;;5025574;28;20059;-71
2023/04/09 10:20:10;;;;;;;22.73;10.32;;;;;;;;;;5030535;28;20057;-71
2023/04/09 10:22:39;;;;;;;19.63;10.18;;;;;;;;;;5027183;28;20083;-69
2023/04/09 10:25:12;;;;;;;24.65;10.38;;;;;;;;;;5030186;28;20076;-71
2023/04/09 10:27:38;;;;;;;25.58;10.70;;;;;;;;;;5027466;28;20053;-70
2023/04/09 10:30:09;;;;;;;24.17;10.43;;;;;;;;;;5027016;28;20057;-71
2023/04/09 10:32:43;;;;;;;24.52;10.32;;;;;;;;;;5024085;28;20061;-70
2023/04/09 10:35:10;;;;;;;26.88;11.60;;;;;;;;;;5052699;28;20052;-69
2023/04/09 10:37:38;;;;;;;25.42;10.82;;;;;;;;;;5034312;28;20139;-69
2023/04/09 10:40:08;;;;;;;23.48;10.25;;;;;;;;;;5025787;28;20057;-70
2023/04/09 10:42:37;;;;;;;22.67;10.38;;;;;;;;;;5034938;28;20076;-70
2023/04/09 10:45:10;;;;;;;21.80;10.32;;;;;;;;;;5028221;28;20059;-69
2023/04/09 10:47:40;;;;;;;22.73;9.82;;;;;;;;;;5015757;28;20057;-71
2023/04/09 10:50:17;;;;;;;22.63;9.70;;;;;;;;;;5028010;28;20062;-70
2023/04/09 10:52:44;;;;;;;21.85;9.82;;;;;;;;;;5027988;28;20049;-70
2023/04/09 10:55:29;;;;;;;22.80;10.00;;;;;;;;;;5041646;28;20071;-71
2023/04/09 10:57:56;;;;;;;21.13;9.98;;;;;;;;;;5011422;28;20045;-69
2023/04/09 11:00:32;;;;;;;21.83;10.20;;;;;;;;;;5023532;28;20056;-69
2023/04/09 11:03:10;;;;;;;22.80;10.20;;;;;;;;;;5037232;28;20143;-70
2023/04/09 11:05:40;;;;;;;21.67;9.82;;;;;;;;;;5065573;28;20187;-70
2023/04/09 11:08:08;;;;;;;21.50;9.70;;;;;;;;;;5018527;28;20067;-71
2023/04/09 11:10:36;;;;;;;21.90;10.00;;;;;;;;;;5019099;28;20060;-69
2023/04/09 11:13:03;;;;;;;21.08;9.85;;;;;;;;;;5029195;28;20056;-72
2023/04/09 11:15:31;;;;;;;20.20;9.63;;;;;;;;;;5029600;28;20083;-68
2023/04/09 11:17:58;;;;;;;19.45;9.80;;;;;;;;;;5031829;28;20048;-69
2023/04/09 11:20:25;;;;;;;20.17;9.70;;;;;;;;;;5033609;28;20068;-70
2023/04/09 11:22:55;;;;;;;21.80;9.88;;;;;;;;;;5036058;28;20063;-69
2023/04/09 11:25:22;;;;;;;20.75;9.45;;;;;;;;;;5042643;28;20058;-69
2023/04/09 11:27:51;;;;;;;19.00;9.00;;;;;;;;;;5038129;28;20140;-70
2023/04/09 11:30:18;;;;;;;20.48;9.25;;;;;;;;;;5039842;28;20052;-71
2023/04/09 11:32:48;;;;;;;22.08;9.10;;;;;;;;;;5024264;28;20077;-71
2023/04/09 11:35:15;;;;;;;18.58;9.93;;;;;;;;;;5038622;28;20058;-71
2023/04/09 11:37:45;;;;;;;20.60;9.68;;;;;;;;;;5033240;28;20075;-70
2023/04/09 11:40:24;;;;;;;18.23;9.18;;;;;;;;;;5043035;28;20060;-69
2023/04/09 11:42:53;;;;;;;22.90;10.52;;;;;;;;;;5033759;28;20062;-70
2023/04/09 11:45:25;;;;;;;17.92;8.88;;;;;;;;;;5042124;28;20057;-71
2023/04/09 11:47:55;;;;;;;19.27;9.10;;;;;;;;;;5030264;28;20057;-71
2023/04/09 11:50:22;;;;;;;19.75;8.88;;;;;;;;;;5037687;28;20061;-71
2023/04/09 11:52:49;;;;;;;19.45;9.05;;;;;;;;;;5032489;28;20067;-71
2023/04/09 11:55:23;;;;;;;23.42;9.73;;;;;;;;;;5039371;28;20060;-71
2023/04/09 11:57:51;;;;;;;19.63;9.10;;;;;;;;;;5002754;28;20089;-69
2023/04/09 12:00:26;;;;;;;18.77;8.88;;;;;;;;;;4998264;28;20057;-72
2023/04/09 12:02:59;;;;;;;17.95;8.38;;;;;;;;;;5050231;28;20083;-72
2023/04/09 12:05:28;;;;;;;21.45;8.48;;;;;;;;;;5039977;28;20137;-71
2023/04/09 12:07:58;;;;;;;18.70;8.35;;;;;;;;;;5035642;28;20056;-71
2023/04/09 12:10:29;;;;;;;18.77;8.38;;;;;;;;;;5033922;28;20084;-68
2023/04/09 12:13:00;;;;;;;17.20;8.55;;;;;;;;;;5058076;28;20079;-71
2023/04/09 12:15:31;;;;;;;18.58;8.32;;;;;;;;;;5053551;28;20147;-71
2023/04/09 12:17:58;;;;;;;17.65;8.20;;;;;;;;;;5035882;28;20152;-71
2023/04/09 12:20:32;;;;;;;17.63;7.45;;;;;;;;;;5027251;28;20064;-70
2023/04/09 12:23:02;;;;;;;16.38;7.70;;;;;;;;;;5039066;28;20155;-71
2023/04/09 12:25:38;;;;;;;15.20;7.60;;;;;;;;;;5018290;28;20056;-71
2023/04/09 12:28:12;;;;;;;15.55;7.85;;;;;;;;;;5024206;28;20088;-72
2023/04/09 12:30:43;;;;;;;16.45;7.53;;;;;;;;;;5023896;28;20076;-72
2023/04/09 12:33:15;;;;;;;17.67;7.85;;;;;;;;;;5028937;28;20055;-71
2023/04/09 12:35:42;;;;;;;18.73;7.45;;;;;;;;;;5025326;28;20053;-73
2023/04/09 12:38:11;;;;;;;20.67;7.40;;;;;;;;;;5018169;28;20052;-73
2023/04/09 12:40:37;;;;;;;;;;;;;;;;;;5018693;28;20052;-73
2023/04/09 12:43:06;;;;;;;12.88;6.35;;;;;;;;;;5033557;28;19924;-73
2023/04/09 12:45:36;;;;;;;13.85;6.63;;;;;;;;;;5032756;28;20057;-73
2023/04/09 12:48:08;;;;;;;13.75;6.88;;;;;;;;;;5018754;28;20072;-72
2023/04/09 12:50:40;;;;;;;14.63;6.63;;;;;;;;;;5028278;28;20052;-69
2023/04/09 12:53:18;;;;;;;14.60;6.50;;;;;;;;;;5031999;28;20052;-71
2023/04/09 12:55:48;;;;;;;12.75;6.82;;;;;;;;;;5033821;28;20056;-71
2023/04/09 12:58:14;;;;;;;14.15;6.47;;;;;;;;;;5030681;28;20044;-73
2023/04/09 13:00:44;;;;;;;14.20;6.88;;;;;;;;;;5033225;28;20339;-71
2023/04/09 13:03:15;;;;;;;17.35;7.53;;;;;;;;;;5030507;28;20060;-70
2023/04/09 13:05:42;;;;;;;15.23;7.50;;;;;;;;;;5032235;28;20060;-70
2023/04/09 13:08:12;;;;;;;15.90;7.40;;;;;;;;;;5039485;28;20214;-71
2023/04/09 13:10:40;;;;;;;15.70;6.88;;;;;;;;;;5032965;28;20056;-72
2023/04/09 13:13:11;;;;;;;31.13;15.63;;;;;;;;;;5034387;28;20192;-70
2023/04/09 13:15:42;;;;;;;26.90;10.95;;;;;;;;;;5033164;28;20056;-72
2023/04/09 13:18:14;;;;;;;29.73;12.30;;;;;;;;;;5020953;28;20052;-70
2023/04/09 13:20:45;;;;;;;34.25;16.17;;;;;;;;;;5022193;28;20114;-72
2023/04/09 13:23:12;;;;;;;32.40;14.45;;;;;;;;;;5034109;28;20052;-70
2023/04/09 13:25:39;;;;;;;27.02;11.77;;;;;;;;;;5039027;28;20057;-72
2023/04/09 13:28:11;;;;;;;27.00;11.48;;;;;;;;;;5005253;28;20174;-70
2023/04/09 13:30:39;;;;;;;22.17;9.98;;;;;;;;;;5037373;28;20098;-72
2023/04/09 13:33:06;;;;;;;21.92;9.60;;;;;;;;;;5025437;28;20071;-69
2023/04/09 13:35:32;;;;;;;16.42;8.02;;;;;;;;;;5040357;28;20052;-73
2023/04/09 13:38:01;;;;;;;17.83;8.45;;;;;;;;;;5032455;28;20064;-71
2023/04/09 13:40:27;;;;;;;;;;;;;;;;;;5024617;28;20139;-71
2023/04/09 13:42:56;;;;;;;17.05;8.07;;;;;;;;;;5038901;28;19925;-73
2023/04/09 13:45:26;;;;;;;17.80;8.32;;;;;;;;;;5038017;28;20068;-70
2023/04/09 13:47:53;;;;;;;19.42;8.95;;;;;;;;;;5026225;28;20052;-72
2023/04/09 13:50:22;;;;;;;19.70;8.98;;;;;;;;;;5049924;28;20190;-71
2023/04/09 13:52:49;;;;;;;17.98;8.70;;;;;;;;;;5032196;28;20999;-71
2023/04/09 13:55:20;;;;;;;19.20;7.97;;;;;;;;;;5036482;28;20052;-71
2023/04/09 13:57:47;;;;;;;17.77;8.40;;;;;;;;;;5025778;28;20115;-73
2023/04/09 14:00:14;;;;;;;13.98;7.15;;;;;;;;;;5025823;28;20123;-71
2023/04/09 14:02:41;;;;;;;16.42;7.97;;;;;;;;;;5011213;28;20048;-72
2023/04/09 14:05:10;;;;;;;16.48;8.30;;;;;;;;;;5017063;28;20060;-72
2023/04/09 14:07:37;;;;;;;15.13;7.75;;;;;;;;;;5028888;28;20056;-71
2023/04/09 14:10:05;;;;;;;16.65;7.78;;;;;;;;;;5024031;28;20283;-72
2023/04/09 14:12:34;;;;;;;16.05;7.25;;;;;;;;;;5022122;28;20076;-73
2023/04/09 14:15:03;;;;;;;14.13;7.15;;;;;;;;;;5032892;28;20328;-71
2023/04/09 14:17:31;;;;;;;16.58;7.05;;;;;;;;;;5019954;28;20141;-71
2023/04/09 14:19:58;;;;;;;15.33;7.17;;;;;;;;;;5036931;28;20056;-72
2023/04/09 14:22:25;;;;;;;17.60;7.18;;;;;;;;;;5030463;28;20084;-69
2023/04/09 14:24:52;;;;;;;19.63;7.25;;;;;;;;;;5035798;28;20082;-71
2023/04/09 14:27:23;;;;;;;16.55;6.93;;;;;;;;;;5008641;28;20063;-70
2023/04/09 14:29:56;;;;;;;16.58;7.20;;;;;;;;;;5022260;28;20088;-72
2023/04/09 14:32:25;;;;;;;14.20;6.53;;;;;;;;;;5019669;28;20072;-72
2023/04/09 14:34:51;;;;;;;14.00;6.82;;;;;;;;;;5016883;28;20053;-70
2023/04/09 14:37:19;;;;;;;14.40;6.50;;;;;;;;;;5022382;28;20056;-70
2023/04/09 14:39:46;;;;;;;15.67;6.17;;;;;;;;;;5034676;28;20052;-72
2023/04/09 14:42:13;;;;;;;19.27;7.22;;;;;;;;;;5035112;28;20048;-71
2023/04/09 14:44:40;;;;;;;14.05;6.80;;;;;;;;;;5027515;28;20066;-71
2023/04/09 14:47:08;;;;;;;13.32;5.90;;;;;;;;;;5034804;28;20052;-72
2023/04/09 14:49:37;;;;;;;15.00;6.05;;;;;;;;;;5039342;28;20128;-70
2023/04/09 14:52:05;;;;;;;15.15;7.15;;;;;;;;;;5039794;28;20063;-72
2023/04/09 14:54:32;;;;;;;11.95;6.28;;;;;;;;;;5020973;28;20048;-70
2023/04/09 14:57:01;;;;;;;13.13;6.23;;;;;;;;;;4993484;28;20049;-71